createdAt,value
2023-12-26T00:00:15.607Z,84.96
2023-12-26T00:02:43.878Z,84.43
2023-12-26T00:05:11.994Z,84.85
2023-12-26T00:07:40.768Z,84.51
2023-12-26T00:10:09.025Z,84.13
2023-12-26T00:12:36.987Z,85.06
2023-12-26T00:15:05.425Z,84.89
2023-12-26T00:17:33.580Z,84.81
2023-12-26T00:20:01.809Z,85.54
2023-12-26T00:22:29.921Z,84.33
2023-12-26T00:24:58.012Z,84.21
2023-12-26T00:27:26.118Z,84.66
2023-12-26T00:29:54.266Z,83.38
2023-12-26T00:32:22.377Z,83.87
2023-12-26T00:34:50.531Z,83.69
2023-12-26T00:37:18.517Z,83.41
2023-12-26T00:39:47.361Z,84.96
2023-12-26T00:42:15.456Z,84.11
2023-12-26T00:44:46.025Z,83.79
2023-12-26T00:47:14.189Z,83.22
2023-12-26T00:49:42.710Z,84.15
2023-12-26T00:52:10.991Z,84.19
2023-12-26T00:54:39.440Z,83.67
2023-12-26T00:57:07.477Z,84.25
2023-12-26T00:59:35.768Z,83.75
2023-12-26T01:02:05.050Z,83.87
2023-12-26T01:04:33.121Z,83.22
2023-12-26T01:07:01.050Z,83.75
2023-12-26T01:09:29.982Z,83.37
2023-12-26T01:11:58.184Z,84.97
2023-12-26T01:14:26.165Z,84.82
2023-12-26T01:16:54.243Z,84.20
2023-12-26T01:19:22.401Z,83.77
2023-12-26T01:21:50.504Z,83.76
2023-12-26T01:24:18.534Z,83.58
2023-12-26T01:26:46.634Z,83.67
2023-12-26T01:29:14.698Z,83.44
2023-12-26T01:31:42.679Z,84.01
2023-12-26T01:34:11.123Z,83.95
2023-12-26T01:36:39.525Z,83.21
2023-12-26T01:39:08.145Z,83.51
2023-12-26T01:41:36.905Z,83.49
2023-12-26T01:44:05.143Z,84.01
2023-12-26T01:46:33.214Z,84.19
2023-12-26T01:49:02.348Z,84.31
2023-12-26T01:51:31.315Z,83.50
2023-12-26T01:54:00.880Z,83.78
2023-12-26T01:56:30.809Z,83.56
2023-12-26T01:58:59.273Z,84.41
2023-12-26T02:01:27.331Z,84.19
2023-12-26T02:03:56.456Z,84.15
2023-12-26T02:06:24.553Z,83.85
2023-12-26T02:08:52.775Z,83.57
2023-12-26T02:11:20.880Z,83.85
2023-12-26T02:13:48.973Z,83.71
2023-12-26T02:16:23.171Z,84.10
2023-12-26T02:18:52.327Z,84.02
2023-12-26T02:21:20.422Z,84.09
2023-12-26T02:23:55.177Z,83.88
2023-12-26T02:26:24.801Z,83.50
2023-12-26T02:28:54.737Z,83.22
2023-12-26T02:31:24.066Z,82.55
2023-12-26T02:33:52.557Z,83.38
2023-12-26T02:36:21.906Z,83.42
2023-12-26T02:38:49.931Z,84.09
2023-12-26T02:41:17.959Z,83.34
2023-12-26T02:43:46.002Z,83.56
2023-12-26T02:46:15.146Z,83.78
2023-12-26T02:48:43.187Z,83.68
2023-12-26T02:51:11.334Z,83.45
2023-12-26T02:53:39.444Z,83.63
2023-12-26T02:56:07.644Z,83.10
2023-12-26T02:58:35.650Z,83.29
2023-12-26T03:03:33.180Z,83.10
2023-12-26T03:06:01.498Z,83.47
2023-12-26T03:08:29.473Z,83.61
2023-12-26T03:10:57.431Z,83.75
2023-12-26T03:13:25.601Z,83.32
2023-12-26T03:15:53.614Z,84.12
2023-12-26T03:18:21.776Z,82.97
2023-12-26T03:20:50.027Z,82.76
2023-12-26T03:23:18.055Z,84.27
2023-12-26T03:25:46.091Z,84.67
2023-12-26T03:28:14.174Z,84.41
2023-12-26T03:30:42.087Z,83.62
2023-12-26T03:33:10.274Z,83.53
2023-12-26T03:35:38.419Z,84.28
2023-12-26T03:38:06.844Z,84.64
2023-12-26T03:40:35.150Z,84.89
2023-12-26T03:43:03.178Z,84.83
2023-12-26T03:45:31.208Z,85.83
2023-12-26T03:47:59.445Z,85.85
2023-12-26T03:50:27.688Z,86.27
2023-12-26T03:52:56.224Z,86.09
2023-12-26T03:55:24.297Z,85.86
2023-12-26T03:57:52.296Z,85.41
2023-12-26T04:00:20.270Z,85.60
2023-12-26T04:02:49.062Z,84.94
2023-12-26T04:05:17.815Z,84.43
2023-12-26T04:07:45.801Z,85.00
2023-12-26T04:10:13.970Z,84.44
2023-12-26T04:12:43.080Z,84.77
2023-12-26T04:15:11.298Z,84.32
2023-12-26T04:17:39.544Z,83.51
2023-12-26T04:20:08.688Z,83.96
2023-12-26T04:22:36.662Z,83.59
2023-12-26T04:25:06.543Z,83.45
2023-12-26T04:27:34.471Z,83.67
2023-12-26T04:30:02.534Z,83.70
2023-12-26T04:32:31.529Z,83.01
2023-12-26T04:34:59.549Z,82.64
2023-12-26T04:37:27.868Z,82.77
2023-12-26T04:39:55.858Z,82.12
2023-12-26T04:42:23.864Z,82.42
2023-12-26T04:44:51.830Z,83.08
2023-12-26T04:47:20.623Z,82.84
2023-12-26T04:49:48.598Z,83.62
2023-12-26T04:52:17.443Z,83.57
2023-12-26T04:54:45.665Z,84.74
2023-12-26T04:57:13.651Z,84.58
2023-12-26T04:59:44.057Z,84.10
2023-12-26T05:02:12.199Z,83.71
2023-12-26T05:04:40.546Z,84.36
2023-12-26T05:07:09.638Z,83.67
2023-12-26T05:09:37.981Z,83.91
2023-12-26T05:12:06.380Z,83.40
2023-12-26T05:14:34.618Z,83.72
2023-12-26T05:17:02.584Z,83.74
2023-12-26T05:19:30.635Z,83.55
2023-12-26T05:21:58.810Z,83.16
2023-12-26T05:24:29.561Z,83.62
2023-12-26T05:26:58.718Z,82.79
2023-12-26T05:29:26.663Z,82.84
2023-12-26T05:31:54.763Z,83.66
2023-12-26T05:34:22.957Z,82.93
2023-12-26T05:36:51.005Z,83.45
2023-12-26T05:39:19.447Z,84.53
2023-12-26T05:41:47.588Z,84.53
2023-12-26T05:44:15.983Z,84.42
2023-12-26T05:46:47.000Z,83.48
2023-12-26T05:49:15.562Z,84.62
2023-12-26T05:51:44.616Z,84.32
2023-12-26T05:54:12.841Z,84.06
2023-12-26T05:56:41.746Z,83.65
2023-12-26T05:59:10.123Z,83.71
2023-12-26T06:01:38.573Z,83.47
2023-12-26T06:04:07.167Z,83.90
2023-12-26T06:06:35.244Z,83.96
2023-12-26T06:09:03.617Z,84.25
2023-12-26T06:11:32.279Z,84.27
2023-12-26T06:14:00.229Z,84.11
2023-12-26T06:16:28.212Z,84.41
2023-12-26T06:18:56.558Z,84.02
2023-12-26T06:21:24.782Z,84.86
2023-12-26T06:23:54.352Z,85.04
2023-12-26T06:26:22.994Z,84.89
2023-12-26T06:28:51.071Z,85.09
2023-12-26T06:31:20.404Z,85.05
2023-12-26T06:33:49.049Z,84.97
2023-12-26T06:36:18.617Z,85.25
2023-12-26T06:38:46.897Z,84.61
2023-12-26T06:41:15.514Z,84.40
2023-12-26T06:43:43.626Z,84.26
2023-12-26T06:46:11.687Z,84.06
2023-12-26T06:48:42.278Z,84.33
2023-12-26T06:51:11.076Z,84.03
2023-12-26T06:53:39.124Z,84.78
2023-12-26T06:56:07.389Z,84.18
2023-12-26T06:58:35.702Z,84.75
2023-12-26T07:01:04.419Z,85.57
2023-12-26T07:03:32.652Z,85.48
2023-12-26T07:06:00.997Z,85.10
2023-12-26T07:08:29.028Z,85.29
2023-12-26T07:10:57.154Z,85.25
2023-12-26T07:13:25.110Z,85.73
2023-12-26T07:15:53.595Z,85.28
2023-12-26T07:18:22.649Z,85.84
2023-12-26T07:20:51.177Z,86.10
2023-12-26T07:23:19.633Z,86.85
2023-12-26T07:25:47.811Z,87.83
2023-12-26T07:28:18.752Z,87.63
2023-12-26T07:30:47.603Z,87.35
2023-12-26T07:33:16.714Z,87.82
2023-12-26T07:35:45.318Z,87.85
2023-12-26T07:38:13.657Z,87.89
2023-12-26T07:40:42.253Z,86.89
2023-12-26T07:43:11.770Z,85.80
2023-12-26T07:45:39.793Z,85.20
2023-12-26T07:48:08.046Z,84.39
2023-12-26T07:50:36.695Z,81.75
2023-12-26T07:53:05.991Z,81.36
2023-12-26T07:55:34.510Z,79.33
2023-12-26T07:58:03.102Z,80.25
2023-12-26T08:00:31.675Z,78.61
2023-12-26T08:03:00.945Z,79.77
2023-12-26T08:05:30.191Z,79.88
2023-12-26T08:07:58.847Z,79.57
2023-12-26T08:10:27.794Z,79.58
2023-12-26T08:12:56.562Z,79.64
2023-12-26T08:15:25.235Z,78.50
2023-12-26T08:17:54.130Z,79.02
2023-12-26T08:20:23.538Z,78.95
2023-12-26T08:22:52.243Z,80.45
2023-12-26T08:25:20.881Z,80.37
2023-12-26T08:27:49.265Z,81.81
2023-12-26T08:30:18.818Z,81.13
2023-12-26T08:32:47.788Z,81.91
2023-12-26T08:35:16.556Z,81.69
2023-12-26T08:37:45.273Z,80.10
2023-12-26T08:40:13.924Z,80.39
2023-12-26T08:42:42.427Z,77.36
2023-12-26T08:45:11.352Z,77.25
2023-12-26T08:47:39.998Z,77.56
2023-12-26T08:50:08.936Z,75.71
2023-12-26T08:52:37.173Z,76.48
2023-12-26T08:55:06.051Z,75.14
2023-12-26T08:57:34.223Z,73.06
2023-12-26T09:00:02.792Z,71.73
2023-12-26T09:02:31.453Z,71.55
2023-12-26T09:05:00.920Z,69.83
2023-12-26T09:07:31.090Z,67.04
2023-12-26T09:09:59.802Z,65.72
2023-12-26T09:12:28.385Z,64.44
2023-12-26T09:14:56.980Z,61.71
2023-12-26T09:17:25.522Z,59.16
2023-12-26T09:19:54.052Z,56.72
2023-12-26T09:22:22.165Z,55.04
2023-12-26T09:24:50.439Z,52.35
2023-12-26T09:27:18.473Z,49.41
2023-12-26T09:29:46.501Z,45.78
2023-12-26T09:32:14.509Z,44.45
2023-12-26T09:34:42.624Z,42.43
2023-12-26T09:37:10.784Z,39.58
2023-12-26T09:39:38.755Z,37.52
2023-12-26T09:42:10.749Z,35.08
2023-12-26T09:44:39.311Z,33.34
2023-12-26T09:47:08.136Z,32.43
2023-12-26T09:49:36.697Z,32.71
2023-12-26T09:52:10.464Z,32.76
2023-12-26T09:54:46.852Z,33.28
2023-12-26T09:57:17.298Z,32.08
2023-12-26T09:59:49.290Z,31.17
2023-12-26T10:02:18.133Z,30.76
2023-12-26T10:04:47.197Z,29.14
2023-12-26T10:07:16.511Z,29.69
2023-12-26T10:09:45.025Z,30.83
2023-12-26T10:12:13.766Z,31.47
2023-12-26T10:14:42.602Z,30.75
2023-12-26T10:17:13.296Z,30.47
2023-12-26T10:19:41.895Z,30.47
2023-12-26T10:22:11.330Z,30.30
2023-12-26T10:24:41.261Z,29.64
2023-12-26T10:27:10.142Z,28.88
2023-12-26T10:29:38.856Z,29.28
2023-12-26T10:32:07.987Z,28.31
2023-12-26T10:34:36.963Z,27.92
2023-12-26T10:37:07.176Z,28.25
2023-12-26T10:39:36.276Z,26.23
2023-12-26T10:42:05.663Z,25.36
2023-12-26T10:45:00.088Z,23.55
2023-12-26T10:47:32.646Z,22.37
2023-12-26T10:50:03.777Z,21.95
2023-12-26T10:52:35.463Z,21.96
2023-12-26T10:55:08.026Z,21.75
2023-12-26T10:57:38.365Z,21.72
2023-12-26T11:00:50.654Z,20.79
2023-12-26T11:04:15.373Z,21.05
2023-12-26T11:07:58.338Z,20.27
2023-12-26T11:11:41.210Z,20.53
2023-12-26T11:15:23.827Z,21.07
2023-12-26T11:19:06.799Z,22.04
2023-12-26T11:22:49.991Z,21.75
2023-12-26T11:26:33.189Z,20.79
2023-12-26T11:30:16.364Z,21.36
2023-12-26T11:33:59.607Z,21.87
2023-12-26T11:37:42.753Z,22.55
2023-12-26T11:41:25.615Z,22.97
2023-12-26T11:45:08.708Z,22.37
2023-12-26T11:48:53.989Z,22.43
2023-12-26T11:52:37.468Z,22.38
2023-12-26T11:56:20.545Z,23.00
2023-12-26T12:00:03.554Z,22.50
2023-12-26T12:03:46.663Z,21.12
2023-12-26T12:07:29.461Z,21.32
2023-12-26T12:11:12.297Z,21.50
2023-12-26T12:14:55.743Z,21.98
2023-12-26T12:18:38.352Z,21.83
2023-12-26T12:22:21.084Z,21.97
2023-12-26T12:26:04.097Z,22.40
2023-12-26T12:29:46.453Z,23.65
2023-12-26T12:33:30.133Z,24.33
2023-12-26T12:37:12.945Z,25.55
2023-12-26T12:40:56.089Z,26.83
2023-12-26T12:44:39.698Z,27.67
2023-12-26T12:48:30.148Z,29.66
2023-12-26T12:52:20.101Z,31.18
2023-12-26T12:56:03.238Z,33.97
2023-12-26T12:59:53.141Z,33.27
2023-12-26T13:03:36.333Z,35.69
2023-12-26T13:07:26.127Z,38.57
2023-12-26T13:11:16.184Z,39.63
2023-12-26T13:15:05.829Z,44.20
2023-12-26T13:18:48.754Z,44.36
2023-12-26T13:22:38.997Z,45.61
2023-12-26T13:26:24.407Z,46.27
2023-12-26T13:30:14.080Z,48.06
2023-12-26T13:34:03.298Z,50.23
2023-12-26T13:37:53.693Z,50.04
2023-12-26T13:41:44.011Z,51.92
2023-12-26T13:45:34.027Z,52.79
2023-12-26T13:49:23.319Z,52.78
2023-12-26T13:52:14.338Z,52.87
2023-12-26T13:55:22.894Z,54.08
2023-12-26T13:57:51.740Z,54.43
2023-12-26T14:00:57.381Z,53.25
2023-12-26T14:03:26.192Z,53.90
2023-12-26T14:06:13.346Z,54.11
2023-12-26T14:08:42.148Z,54.80
2023-12-26T14:11:29.316Z,54.70
2023-12-26T14:13:58.118Z,55.98
2023-12-26T14:17:04.293Z,55.53
2023-12-26T14:19:34.179Z,55.56
2023-12-26T14:22:40.332Z,56.68
2023-12-26T14:25:09.070Z,56.83
2023-12-26T14:28:15.007Z,57.67
2023-12-26T14:30:44.851Z,57.58
2023-12-26T14:33:50.817Z,57.69
2023-12-26T14:36:56.982Z,58.99
2023-12-26T14:39:25.782Z,59.88
2023-12-26T14:42:32.161Z,59.95
2023-12-26T14:45:01.117Z,59.32
2023-12-26T14:47:48.165Z,60.41
2023-12-26T14:50:17.001Z,60.38
2023-12-26T14:53:22.731Z,61.68
2023-12-26T14:55:51.667Z,61.85
2023-12-26T14:58:57.383Z,61.52
2023-12-26T15:01:27.878Z,62.15
2023-12-26T15:03:56.655Z,62.93
2023-12-26T15:06:25.267Z,62.26
2023-12-26T15:08:54.046Z,62.91
2023-12-26T15:11:22.813Z,63.23
2023-12-26T15:14:00.948Z,63.54
2023-12-26T15:16:40.002Z,64.12
2023-12-26T15:19:08.650Z,64.06
2023-12-26T15:21:44.320Z,64.10
2023-12-26T15:24:14.239Z,64.06
2023-12-26T15:26:44.194Z,64.60
2023-12-26T15:29:13.031Z,65.11
2023-12-26T15:31:41.899Z,65.72
2023-12-26T15:34:10.685Z,64.67
2023-12-26T15:36:39.456Z,65.73
2023-12-26T15:39:08.551Z,65.64
2023-12-26T15:41:37.926Z,66.26
2023-12-26T15:44:06.996Z,67.61
2023-12-26T15:46:35.692Z,67.22
2023-12-26T15:49:04.481Z,67.55
2023-12-26T15:51:33.463Z,67.28
2023-12-26T15:54:02.332Z,67.82
2023-12-26T15:56:31.189Z,67.98
2023-12-26T15:58:59.702Z,68.56
2023-12-26T16:01:28.649Z,69.38
2023-12-26T16:03:57.956Z,68.92
2023-12-26T16:06:29.480Z,68.91
2023-12-26T16:08:58.408Z,69.43
2023-12-26T16:11:27.445Z,70.90
2023-12-26T16:13:56.258Z,70.21
2023-12-26T16:16:24.928Z,70.27
2023-12-26T16:18:53.726Z,72.20
2023-12-26T16:21:23.883Z,70.49
2023-12-26T16:23:52.731Z,69.87
2023-12-26T16:26:23.217Z,72.38
2023-12-26T16:28:54.192Z,71.64
2023-12-26T16:31:23.488Z,72.63
2023-12-26T16:33:53.758Z,72.37
2023-12-26T16:36:22.713Z,71.36
2023-12-26T16:38:51.198Z,71.13
2023-12-26T16:41:19.844Z,71.66
2023-12-26T16:43:48.280Z,71.57
2023-12-26T16:46:17.298Z,72.72
2023-12-26T16:48:46.263Z,73.42
2023-12-26T16:51:15.177Z,72.71
2023-12-26T16:53:44.327Z,73.11
2023-12-26T16:56:14.147Z,73.07
2023-12-26T16:58:42.951Z,71.94
2023-12-26T17:01:11.542Z,73.28
2023-12-26T17:03:42.449Z,73.11
2023-12-26T17:06:12.141Z,72.92
2023-12-26T17:08:40.769Z,75.04
2023-12-26T17:11:11.737Z,74.05
2023-12-26T17:13:40.399Z,73.38
2023-12-26T17:16:17.542Z,73.67
2023-12-26T17:18:46.557Z,73.78
2023-12-26T17:21:15.462Z,74.37
2023-12-26T17:23:44.410Z,74.83
2023-12-26T17:26:15.790Z,74.08
2023-12-26T17:28:45.980Z,74.74
2023-12-26T17:31:14.792Z,74.14
2023-12-26T17:33:43.630Z,75.23
2023-12-26T17:36:12.267Z,76.08
2023-12-26T17:38:40.738Z,75.83
2023-12-26T17:41:09.818Z,74.98
2023-12-26T17:43:38.586Z,75.07
2023-12-26T17:46:07.476Z,75.59
2023-12-26T17:48:36.398Z,75.50
2023-12-26T17:51:05.409Z,75.72
2023-12-26T17:53:34.342Z,75.18
2023-12-26T17:56:04.065Z,74.95
2023-12-26T17:58:33.666Z,76.22
2023-12-26T18:01:02.786Z,76.46
2023-12-26T18:03:31.492Z,76.01
2023-12-26T18:06:00.263Z,75.93
2023-12-26T18:08:30.320Z,75.79
2023-12-26T18:10:58.865Z,76.08
2023-12-26T18:13:27.500Z,76.71
2023-12-26T18:15:56.186Z,76.21
2023-12-26T18:18:26.225Z,75.75
2023-12-26T18:20:55.510Z,75.86
2023-12-26T18:23:24.161Z,75.10
2023-12-26T18:25:53.578Z,75.39
2023-12-26T18:28:23.202Z,75.81
2023-12-26T18:30:52.453Z,77.64
2023-12-26T18:33:21.771Z,78.62
2023-12-26T18:35:50.559Z,78.85
2023-12-26T18:38:19.161Z,78.99
2023-12-26T18:40:48.199Z,77.95
2023-12-26T18:43:17.352Z,77.30
2023-12-26T18:45:46.257Z,77.32
2023-12-26T18:48:15.436Z,78.62
2023-12-26T18:50:44.355Z,77.87
2023-12-26T18:53:13.668Z,77.13
2023-12-26T18:55:43.359Z,76.77
2023-12-26T18:58:12.505Z,76.49
2023-12-26T19:00:42.204Z,77.05
2023-12-26T19:03:12.625Z,77.69
2023-12-26T19:05:41.348Z,77.50
2023-12-26T19:08:10.159Z,76.71
2023-12-26T19:10:39.001Z,76.86
2023-12-26T19:13:07.701Z,76.72
2023-12-26T19:15:40.534Z,76.54
2023-12-26T19:18:11.955Z,77.27
2023-12-26T19:20:40.685Z,77.81
2023-12-26T19:23:09.601Z,77.91
2023-12-26T19:25:42.883Z,76.63
2023-12-26T19:28:12.516Z,76.76
2023-12-26T19:30:41.857Z,77.79
2023-12-26T19:33:10.689Z,78.68
2023-12-26T19:35:39.660Z,78.07
2023-12-26T19:38:10.252Z,78.51
2023-12-26T19:40:39.019Z,78.08
2023-12-26T19:43:07.819Z,78.87
2023-12-26T19:45:36.513Z,79.23
2023-12-26T19:48:05.924Z,78.33
2023-12-26T19:50:35.244Z,78.66
2023-12-26T19:53:04.602Z,78.43
2023-12-26T19:55:33.456Z,78.90
2023-12-26T19:58:02.181Z,78.86
2023-12-26T20:00:31.597Z,78.45
2023-12-26T20:03:05.407Z,78.31
2023-12-26T20:05:42.237Z,78.42
2023-12-26T20:08:11.103Z,78.41
2023-12-26T20:10:40.646Z,77.74
2023-12-26T20:13:09.418Z,78.18
2023-12-26T20:15:38.184Z,78.24
2023-12-26T20:18:07.007Z,78.43
2023-12-26T20:20:35.894Z,78.08
2023-12-26T20:23:04.734Z,78.06
2023-12-26T20:25:33.510Z,77.76
2023-12-26T20:28:07.885Z,77.39
2023-12-26T20:30:37.020Z,77.36
2023-12-26T20:33:07.393Z,77.23
2023-12-26T20:35:36.060Z,77.70
2023-12-26T20:38:04.553Z,78.59
2023-12-26T20:40:33.732Z,78.32
2023-12-26T20:43:02.266Z,77.82
2023-12-26T20:45:31.154Z,78.79
2023-12-26T20:48:00.051Z,79.00
2023-12-26T20:50:28.999Z,79.19
2023-12-26T20:52:57.303Z,79.07
2023-12-26T20:55:27.462Z,79.26
2023-12-26T20:57:57.684Z,79.59
2023-12-26T21:00:30.086Z,79.36
2023-12-26T21:02:59.051Z,79.80
2023-12-26T21:05:27.642Z,79.58
2023-12-26T21:07:56.617Z,79.59
2023-12-26T21:10:25.347Z,80.02
2023-12-26T21:12:54.052Z,79.44
2023-12-26T21:15:22.562Z,78.89
2023-12-26T21:17:51.206Z,78.79
2023-12-26T21:20:19.934Z,78.43
2023-12-26T21:22:49.429Z,78.81
2023-12-26T21:25:18.024Z,79.05
2023-12-26T21:27:47.172Z,79.25
2023-12-26T21:30:15.835Z,79.82
2023-12-26T21:32:46.698Z,80.35
2023-12-26T21:35:15.511Z,80.49
2023-12-26T21:37:44.290Z,80.36
2023-12-26T21:40:13.401Z,79.66
2023-12-26T21:42:42.198Z,80.12
2023-12-26T21:45:11.936Z,79.98
2023-12-26T21:47:41.672Z,80.17
2023-12-26T21:50:10.441Z,80.52
2023-12-26T21:52:39.197Z,80.75
2023-12-26T21:55:08.216Z,79.88
2023-12-26T21:57:36.815Z,80.39
2023-12-26T22:00:06.671Z,80.61
2023-12-26T22:02:35.479Z,80.66
2023-12-26T22:05:04.408Z,81.29
2023-12-26T22:07:32.988Z,81.31
2023-12-26T22:10:01.658Z,81.37
2023-12-26T22:12:30.319Z,80.73
2023-12-26T22:15:08.999Z,79.66
2023-12-26T22:17:44.944Z,80.59
2023-12-26T22:20:13.514Z,80.54
2023-12-26T22:22:42.367Z,80.44
2023-12-26T22:25:10.761Z,80.89
2023-12-26T22:27:39.283Z,80.90
2023-12-26T22:30:08.578Z,81.59
2023-12-26T22:32:36.889Z,80.52
2023-12-26T22:35:05.414Z,80.86
2023-12-26T22:37:33.654Z,80.92
2023-12-26T22:40:02.196Z,80.55
2023-12-26T22:42:30.588Z,80.80
2023-12-26T22:44:59.220Z,80.81
2023-12-26T22:47:27.394Z,80.61
2023-12-26T22:49:55.541Z,80.76
2023-12-26T22:52:23.668Z,80.39
2023-12-26T22:54:51.679Z,81.45
2023-12-26T22:57:20.213Z,81.31
2023-12-26T22:59:48.303Z,81.23
2023-12-26T23:02:16.463Z,81.40
2023-12-26T23:04:44.458Z,81.24
2023-12-26T23:07:12.582Z,81.70
2023-12-26T23:09:40.527Z,80.62
2023-12-26T23:12:08.476Z,80.28
2023-12-26T23:14:36.637Z,81.07
2023-12-26T23:17:05.050Z,81.73
2023-12-26T23:19:33.156Z,82.22
2023-12-26T23:22:01.192Z,81.25
2023-12-26T23:24:29.264Z,81.84
2023-12-26T23:26:57.234Z,81.63
2023-12-26T23:29:26.076Z,82.24
2023-12-26T23:31:54.215Z,82.17
2023-12-26T23:34:30.192Z,83.22
2023-12-26T23:37:07.212Z,82.56
2023-12-26T23:39:35.285Z,83.70
2023-12-26T23:42:05.583Z,83.62
2023-12-26T23:44:33.709Z,83.08
2023-12-26T23:47:01.753Z,83.41
2023-12-26T23:49:30.007Z,82.81
2023-12-26T23:51:58.132Z,83.20
2023-12-26T23:54:26.161Z,82.88
2023-12-26T23:56:54.274Z,81.56
2023-12-26T23:59:22.307Z,81.59
